Time;durP1;ratioP1;P1;durP2;ratioP2;P2;SDS_P1;SDS_P2;PMS_P1;PMS_P2;Temp;Humidity;BMP_temperature;BMP_pressure;BME280_temperature;BME280_humidity;BME280_pressure;Samples;Min_cycle;Max_cycle;Signal;HPM_P1;HPM_P2
2024/02/25 00:01:18;;;;;;;9.98;5.35;;;0.90;99.90;;;;;;5028630;28;19985;-76
2024/02/25 00:03:44;;;;;;;9.63;5.27;;;;;;;;;;5014039;28;20036;-75
2024/02/25 00:06:10;;;;;;;11.60;6.40;;;;;;;;;;5029044;28;20044;-76
2024/02/25 00:08:37;;;;;;;9.77;5.93;;;;;;;;;;5034220;28;20029;-76
2024/02/25 00:11:05;;;;;;;10.10;6.20;;;;;;;;;;5037497;28;20069;-76
2024/02/25 00:13:31;;;;;;;9.65;5.72;;;;;;;;;;5009341;28;20026;-77
2024/02/25 00:15:58;;;;;;;11.40;6.30;;;;;;;;;;5028559;28;20034;-76
2024/02/25 00:18:24;;;;;;;8.45;5.68;;;;;;;;;;5031183;28;20479;-76
2024/02/25 00:20:50;;;;;;;6.85;4.72;;;;;;;;;;5035076;28;20027;-75
2024/02/25 00:23:16;;;;;;;7.85;4.38;;;;;;;;;;5010559;28;20467;-76
2024/02/25 00:25:44;;;;;;;8.95;4.30;;;;;;;;;;5029141;28;20109;-76
2024/02/25 00:28:10;;;;;;;8.38;4.32;;;;;;;;;;5039524;28;20048;-75
2024/02/25 00:30:37;;;;;;;7.80;4.88;;;;;;;;;;5013221;28;20513;-77
2024/02/25 00:33:03;;;;;;;5.75;3.53;;;;;;;;;;5012538;28;20401;-76
2024/02/25 00:35:30;;;;;;;8.55;4.72;;;;;;;;;;5031093;28;20060;-77
2024/02/25 00:37:56;;;;;;;9.25;4.38;;;;;;;;;;5030874;28;20350;-75
2024/02/25 00:40:24;;;;;;;7.78;5.40;;;;;;;;;;5031218;28;20029;-76
2024/02/25 00:42:51;;;;;;;11.15;6.03;;;;;;;;;;5014016;28;20045;-76
2024/02/25 00:45:18;;;;;;;8.30;4.93;;;;;;;;;;5012613;28;20040;-76
2024/02/25 00:47:45;;;;;;;9.60;5.55;;;;;;;;;;5024099;28;20025;-76
2024/02/25 00:50:11;;;;;;;10.38;5.60;;;;;;;;;;5030522;28;20040;-76
2024/02/25 00:52:37;;;;;;;10.15;5.72;;;;;;;;;;5031088;28;20104;-75
2024/02/25 00:55:04;;;;;;;11.30;6.15;;;;;;;;;;5034110;28;20112;-76
2024/02/25 00:57:30;;;;;;;12.38;6.32;;;;;;;;;;5031393;28;20442;-76
2024/02/25 00:59:56;;;;;;;13.68;7.30;;;;;;;;;;5011783;28;20120;-77
2024/02/25 01:02:22;;;;;;;17.52;7.28;;;;;;;;;;5013262;28;20370;-76
2024/02/25 01:05:02;;;;;;;13.13;6.90;;;;;;;;;;5030792;28;20017;-76
2024/02/25 01:07:28;;;;;;;11.63;6.55;;;;;;;;;;4988671;28;20123;-76
2024/02/25 01:09:55;;;;;;;12.65;6.30;;;;;;;;;;5026227;28;20500;-76
2024/02/25 01:12:22;;;;;;;8.68;4.93;;;;;;;;;;5012957;28;20014;-76
2024/02/25 01:14:50;;;;;;;10.30;4.80;;;;;;;;;;5018162;28;20032;-76
2024/02/25 01:17:16;;;;;;;7.97;5.07;;;;;;;;;;5003944;28;20036;-76
2024/02/25 01:19:42;;;;;;;10.95;4.88;;;;;;;;;;5011871;28;20034;-75
2024/02/25 01:22:08;;;;;;;9.05;5.28;;;;;;;;;;5011402;28;20366;-76
2024/02/25 01:24:35;;;;;;;15.70;5.43;;;;;;;;;;4975371;28;20049;-75
2024/02/25 01:27:01;;;;;;;9.77;5.47;;;;;;;;;;5012699;28;20040;-75
2024/02/25 01:29:29;;;;;;;11.98;6.47;;;;;;;;;;5003647;28;20049;-76
2024/02/25 01:31:56;;;;;;;11.52;6.07;;;;;;;;;;5019544;28;20073;-74
2024/02/25 01:34:28;;;;;;;9.52;5.97;;;;;;;;;;5026115;28;20025;-76
2024/02/25 01:36:54;;;;;;;8.02;5.13;;;;;;;;;;5010649;28;20029;-75
2024/02/25 01:39:22;;;;;;;11.40;5.30;;;;;;;;;;4975996;28;20031;-74
2024/02/25 01:41:50;;;;;;;7.03;4.70;;;;;;;;;;4979888;28;20037;-75
2024/02/25 01:44:16;;;;;;;6.68;4.05;;;;;;;;;;4961608;28;20031;-75
2024/02/25 01:46:45;;;;;;;6.57;4.15;;;;;;;;;;4969357;28;20027;-75
2024/02/25 01:49:17;;;;;;;11.40;6.10;;;;;;;;;;4979092;28;20034;-75
2024/02/25 01:51:45;;;;;;;10.48;5.53;;;;;;;;;;4969105;28;20463;-75
2024/02/25 01:54:11;;;;;;;9.65;5.13;;;;;;;;;;4951650;28;20092;-75
2024/02/25 01:56:38;;;;;;;12.23;5.88;;;;;;;;;;4975833;28;20447;-75
2024/02/25 01:59:05;;;;;;;7.57;4.82;;;;;;;;;;4958030;28;20565;-75
2024/02/25 02:01:34;;;;;;;10.00;5.30;;;;;;;;;;4959539;28;20122;-76
2024/02/25 02:04:02;;;;;;;10.73;6.45;;;;;;;;;;4973583;28;20060;-75
2024/02/25 02:06:29;;;;;;;11.90;5.90;;;;;;;;;;4970422;28;20041;-75
2024/02/25 02:08:55;;;;;;;8.13;5.78;;;;;;;;;;4981354;28;20039;-75
2024/02/25 02:11:21;;;;;;;8.70;5.65;;;;;;;;;;4977321;28;20117;-75
2024/02/25 02:13:48;;;;;;;10.55;5.28;;;;;;;;;;4975206;28;20077;-76
2024/02/25 02:16:15;;;;;;;8.98;4.65;;;;;;;;;;5009071;28;20464;-77
2024/02/25 02:18:41;;;;;;;10.68;5.47;;;;;;;;;;5057049;28;20101;-76
2024/02/25 02:21:28;;;;;;;11.98;5.57;;;;;;;;;;5061140;28;20013;-76
2024/02/25 02:23:54;;;;;;;11.02;5.70;;;;;;;;;;5062287;28;20020;-78
2024/02/25 02:26:20;;;;;;;8.70;5.85;;;;;;;;;;5055478;28;20097;-76
2024/02/25 02:28:47;;;;;;;9.07;5.93;;;;;;;;;;5053350;28;20017;-75
2024/02/25 02:31:13;;;;;;;8.85;5.82;;;;;;;;;;5034312;28;20132;-76
2024/02/25 02:33:40;;;;;;;8.50;5.68;;;;;;;;;;5053796;28;20100;-75
2024/02/25 02:36:06;;;;;;;9.23;5.97;;;-0.10;99.90;;;;;;5050195;28;20022;-75
2024/02/25 02:38:39;;;;;;;11.18;5.80;;;-0.20;99.90;;;;;;5035653;28;20024;-75
2024/02/25 02:41:06;;;;;;;12.05;6.72;;;-0.30;99.90;;;;;;5039765;28;20024;-75
2024/02/25 02:43:31;;;;;;;8.32;5.68;;;-0.30;99.90;;;;;;5054971;28;20021;-75
2024/02/25 02:45:57;;;;;;;10.38;6.07;;;-0.30;99.90;;;;;;5036836;28;20028;-76
2024/02/25 02:48:23;;;;;;;13.27;7.07;;;-0.30;99.90;;;;;;5059297;28;20036;-75
2024/02/25 02:50:50;;;;;;;12.30;7.40;;;-0.30;99.90;;;;;;5059302;28;20039;-74
2024/02/25 02:53:17;;;;;;;15.95;7.82;;;-0.20;99.90;;;;;;5057280;28;20045;-76
2024/02/25 02:55:43;;;;;;;11.63;7.25;;;-0.10;99.90;;;;;;5046280;28;20709;-77
2024/02/25 02:58:08;;;;;;;13.82;8.27;;;-0.10;99.90;;;;;;5052236;28;20021;-76
2024/02/25 03:00:35;;;;;;;12.57;7.10;;;-0.10;99.90;;;;;;5051511;28;20037;-76
2024/02/25 03:03:01;;;;;;;12.38;7.95;;;-0.10;99.90;;;;;;5038722;28;20353;-76
2024/02/25 03:05:26;;;;;;;11.13;7.10;;;-0.10;99.90;;;;;;5050033;28;20044;-76
2024/02/25 03:07:56;;;;;;;16.17;7.35;;;-0.10;99.90;;;;;;5045850;28;20586;-76
2024/02/25 03:10:21;;;;;;;13.13;7.05;;;-0.20;99.90;;;;;;5048461;28;20037;-76
2024/02/25 03:12:47;;;;;;;11.45;6.95;;;-0.20;99.90;;;;;;5054979;28;20029;-75
2024/02/25 03:15:16;;;;;;;10.55;6.45;;;0.00;99.90;;;;;;5049312;28;20037;-75
2024/02/25 03:17:42;;;;;;;10.82;6.45;;;-0.10;99.90;;;;;;5058582;28;20017;-75
2024/02/25 03:20:09;;;;;;;9.75;5.90;;;0.00;99.90;;;;;;5053212;28;20378;-75
2024/02/25 03:22:35;;;;;;;10.30;5.60;;;0.00;99.90;;;;;;5040563;28;20125;-75
2024/02/25 03:25:03;;;;;;;8.27;5.88;;;0.00;99.90;;;;;;5057354;28;20040;-76
2024/02/25 03:27:31;;;;;;;9.30;4.93;;;0.10;99.90;;;;;;5035486;28;20488;-75
2024/02/25 03:29:57;;;;;;;8.88;5.45;;;0.10;99.90;;;;;;5057546;28;20044;-75
2024/02/25 03:32:22;;;;;;;7.38;4.70;;;0.10;99.90;;;;;;5061650;28;20178;-76
2024/02/25 03:34:48;;;;;;;4.68;3.53;;;0.20;99.90;;;;;;5044856;28;20033;-76
2024/02/25 03:37:13;;;;;;;8.10;3.85;;;0.30;99.90;;;;;;5052390;28;20036;-75
2024/02/25 03:39:39;;;;;;;3.92;3.00;;;0.40;99.90;;;;;;5050507;28;20107;-75
2024/02/25 03:42:05;;;;;;;4.28;2.45;;;0.50;99.90;;;;;;5060261;28;20025;-76
2024/02/25 03:44:30;;;;;;;4.18;2.45;;;0.70;99.90;;;;;;5047967;28;20016;-76
2024/02/25 03:46:56;;;;;;;4.47;1.90;;;1.10;99.90;;;;;;5057235;28;20393;-76
2024/02/25 03:49:22;;;;;;;4.65;3.10;;;1.50;99.90;;;;;;5068253;28;20033;-75
2024/02/25 03:51:48;;;;;;;4.10;1.60;;;1.90;99.90;;;;;;5076657;28;20033;-75
2024/02/25 03:54:14;;;;;;;2.73;1.90;;;2.20;99.90;;;;;;5069034;28;20488;-76
2024/02/25 03:56:39;;;;;;;1.98;1.30;;;2.20;99.90;;;;;;5039606;28;20025;-76
2024/02/25 03:59:05;;;;;;;2.28;1.30;;;2.30;99.90;;;;;;5046192;28;20025;-76
2024/02/25 04:01:30;;;;;;;2.60;1.92;;;2.30;99.90;;;;;;5064886;28;20024;-76
2024/02/25 04:03:56;;;;;;;3.17;1.90;;;2.30;99.90;;;;;;5061773;28;20021;-76
2024/02/25 04:06:22;;;;;;;1.35;1.20;;;2.30;99.90;;;;;;5037515;28;20021;-76
2024/02/25 04:08:48;;;;;;;3.78;2.20;;;2.30;99.90;;;;;;5059029;28;20025;-76
2024/02/25 04:11:14;;;;;;;2.50;1.67;;;2.30;99.90;;;;;;5041342;28;20067;-76
2024/02/25 04:13:39;;;;;;;2.85;1.75;;;2.40;99.90;;;;;;5062875;28;20029;-76
2024/02/25 04:16:05;;;;;;;1.95;1.55;;;2.40;99.90;;;;;;5057059;28;20024;-76
2024/02/25 04:18:32;;;;;;;2.75;1.73;;;2.50;99.90;;;;;;5058851;28;20021;-76
2024/02/25 04:20:58;;;;;;;1.85;1.63;;;2.60;99.90;;;;;;5049603;28;20142;-76
2024/02/25 04:23:24;;;;;;;3.33;1.65;;;2.60;99.90;;;;;;5016685;28;20021;-76
2024/02/25 04:25:50;;;;;;;3.80;1.98;;;2.60;99.90;;;;;;5040489;28;20035;-76
2024/02/25 04:28:17;;;;;;;4.93;1.90;;;2.60;99.90;;;;;;5055768;28;20024;-75
2024/02/25 04:30:43;;;;;;;3.25;2.00;;;2.70;99.90;;;;;;5055377;28;20060;-75
2024/02/25 04:33:08;;;;;;;2.90;1.77;;;2.80;99.90;;;;;;5031595;28;20045;-76
2024/02/25 04:35:35;;;;;;;1.92;1.45;;;3.00;99.90;;;;;;5050313;28;20059;-76
2024/02/25 04:38:02;;;;;;;2.03;1.20;;;3.10;99.90;;;;;;5032567;28;20021;-76
2024/02/25 04:40:28;;;;;;;3.63;1.80;;;3.10;99.90;;;;;;5058635;28;20083;-75
2024/02/25 04:42:54;;;;;;;3.53;2.13;;;3.20;99.90;;;;;;5049038;28;20452;-75
2024/02/25 04:45:19;;;;;;;2.58;1.65;;;3.20;99.90;;;;;;5050091;28;20111;-76
2024/02/25 04:47:45;;;;;;;3.67;1.70;;;3.30;99.90;;;;;;5050668;28;20028;-75
2024/02/25 04:50:11;;;;;;;1.83;1.52;;;3.30;99.90;;;;;;5048691;28;20033;-75
2024/02/25 04:52:37;;;;;;;2.28;1.48;;;3.30;99.90;;;;;;5056637;28;20149;-75
2024/02/25 04:55:04;;;;;;;2.97;1.75;;;3.30;99.90;;;;;;5053991;28;20389;-75
2024/02/25 04:57:30;;;;;;;2.35;1.58;;;3.30;99.90;;;;;;5051035;28;20025;-75
2024/02/25 04:59:56;;;;;;;3.10;1.88;;;3.40;99.90;;;;;;5048960;28;20032;-75
2024/02/25 05:02:24;;;;;;;4.68;2.03;;;3.40;99.90;;;;;;5050403;28;20033;-75
2024/02/25 05:04:49;;;;;;;3.75;1.83;;;3.30;99.90;;;;;;5050225;28;20435;-73
2024/02/25 05:07:15;;;;;;;3.08;1.77;;;3.30;99.90;;;;;;5049803;28;20040;-73
2024/02/25 05:09:41;;;;;;;2.90;1.92;;;3.30;99.90;;;;;;5050270;28;20036;-73
2024/02/25 05:12:08;;;;;;;2.55;1.70;;;3.30;99.90;;;;;;5048336;28;20025;-73
2024/02/25 05:14:34;;;;;;;3.00;1.90;;;3.30;99.90;;;;;;5028830;28;20090;-73
2024/02/25 05:17:00;;;;;;;2.63;1.70;;;3.30;99.90;;;;;;5049724;28;20100;-73
2024/02/25 05:19:26;;;;;;;2.72;1.88;;;3.30;99.90;;;;;;5035319;28;20194;-73
2024/02/25 05:21:53;;;;;;;2.67;1.70;;;3.20;99.90;;;;;;5030914;28;20055;-73
2024/02/25 05:24:18;;;;;;;3.13;1.67;;;3.20;99.90;;;;;;5049289;28;20013;-73
2024/02/25 05:26:44;;;;;;;5.07;1.85;;;3.20;99.90;;;;;;5031989;28;20028;-73
2024/02/25 05:29:10;;;;;;;3.08;1.80;;;3.10;99.90;;;;;;5046606;28;20381;-72
2024/02/25 05:31:35;;;;;;;3.15;2.30;;;3.10;99.90;;;;;;5050002;28;20103;-73
2024/02/25 05:34:02;;;;;;;3.33;2.22;;;3.00;99.90;;;;;;5030728;28;20522;-73
2024/02/25 05:36:27;;;;;;;4.25;2.38;;;3.00;99.90;;;;;;5050323;28;20063;-72
2024/02/25 05:38:54;;;;;;;5.53;3.13;;;3.00;99.90;;;;;;5031839;28;20021;-73
2024/02/25 05:41:20;;;;;;;4.78;2.78;;;2.90;99.90;;;;;;5042026;28;20028;-73
2024/02/25 05:43:46;;;;;;;3.88;3.20;;;2.70;99.90;;;;;;5050301;28;20392;-73
2024/02/25 05:46:12;;;;;;;4.82;3.17;;;2.50;99.90;;;;;;5048717;28;20017;-73
2024/02/25 05:48:39;;;;;;;5.05;3.28;;;2.30;99.90;;;;;;5047138;28;20035;-73
2024/02/25 05:51:05;;;;;;;6.53;3.03;;;2.10;99.90;;;;;;5033182;28;20032;-73
2024/02/25 05:53:31;;;;;;;4.80;3.47;;;1.90;99.90;;;;;;5050369;28;20025;-73
2024/02/25 05:55:56;;;;;;;6.05;3.08;;;1.70;99.90;;;;;;5041629;28;20524;-72
2024/02/25 05:58:22;;;;;;;5.65;3.88;;;1.60;99.90;;;;;;5031702;28;20052;-71
2024/02/25 06:00:48;;;;;;;7.03;3.33;;;1.40;99.90;;;;;;5033844;28;20017;-73
2024/02/25 06:03:15;;;;;;;7.53;3.38;;;1.30;99.90;;;;;;5030797;28;20033;-71
2024/02/25 06:05:41;;;;;;;3.92;2.83;;;1.20;99.90;;;;;;5031040;28;20025;-72
2024/02/25 06:08:07;;;;;;;3.53;2.13;;;1.10;99.90;;;;;;5055052;28;20511;-73
2024/02/25 06:10:33;;;;;;;4.95;2.33;;;1.00;99.90;;;;;;5050920;28;20059;-72
2024/02/25 06:13:00;;;;;;;5.72;3.10;;;1.00;99.90;;;;;;5051674;28;20472;-72
2024/02/25 06:15:26;;;;;;;5.22;3.30;;;1.00;99.90;;;;;;5033803;28;20029;-72
2024/02/25 06:17:52;;;;;;;6.60;4.10;;;0.90;99.90;;;;;;5052548;28;20047;-71
2024/02/25 06:20:18;;;;;;;8.82;4.80;;;0.90;99.90;;;;;;5045542;28;20417;-72
2024/02/25 06:22:45;;;;;;;8.32;4.53;;;0.80;99.90;;;;;;5053718;28;20108;-71
2024/02/25 06:25:11;;;;;;;7.10;4.80;;;0.70;99.90;;;;;;5030914;28;20032;-72
2024/02/25 06:27:37;;;;;;;7.97;5.15;;;0.70;99.90;;;;;;5063394;28;20037;-72
2024/02/25 06:30:08;;;;;;;9.02;5.15;;;0.60;99.90;;;;;;5044570;28;20043;-72
2024/02/25 06:32:34;;;;;;;9.25;5.43;;;0.50;99.90;;;;;;5052333;28;20074;-72
2024/02/25 06:35:01;;;;;;;12.25;5.97;;;0.50;99.90;;;;;;5055101;28;20033;-74
2024/02/25 06:37:31;;;;;;;12.38;6.35;;;0.50;99.90;;;;;;5041818;28;20387;-72
2024/02/25 06:39:57;;;;;;;11.10;5.47;;;0.50;99.90;;;;;;5052564;28;20029;-74
2024/02/25 06:42:24;;;;;;;9.05;4.53;;;0.40;99.90;;;;;;5040097;28;20104;-71
2024/02/25 06:44:49;;;;;;;9.93;4.90;;;0.50;99.90;;;;;;5058118;28;20109;-73
2024/02/25 06:47:15;;;;;;;7.70;3.88;;;0.50;99.90;;;;;;5067758;28;20028;-73
2024/02/25 06:49:41;;;;;;;7.47;4.35;;;0.50;99.90;;;;;;5055319;28;20492;-72
2024/02/25 06:52:07;;;;;;;9.18;4.60;;;0.50;99.90;;;;;;5033350;28;20028;-71
2024/02/25 06:54:33;;;;;;;6.53;4.03;;;0.60;99.90;;;;;;5051114;28;20021;-73
2024/02/25 06:57:00;;;;;;;7.63;4.63;;;0.60;99.90;;;;;;5063007;28;20028;-71
2024/02/25 06:59:26;;;;;;;8.07;4.55;;;0.60;99.90;;;;;;5056073;28;20147;-73
2024/02/25 07:01:52;;;;;;;7.25;4.35;;;0.60;99.90;;;;;;5058716;28;20489;-72
2024/02/25 07:04:19;;;;;;;8.20;4.88;;;0.70;99.90;;;;;;5052016;28;20796;-72
2024/02/25 07:06:45;;;;;;;12.00;4.78;;;0.70;99.90;;;;;;5032991;28;20059;-72
2024/02/25 07:09:16;;;;;;;13.77;5.78;;;0.80;99.90;;;;;;5031605;28;20051;-73
2024/02/25 07:11:45;;;;;;;13.30;4.78;;;0.90;99.90;;;;;;5051335;28;20033;-73
2024/02/25 07:14:12;;;;;;;11.48;4.60;;;1.00;99.90;;;;;;5050515;28;20742;-71
2024/02/25 07:16:42;;;;;;;9.52;4.10;;;1.10;99.90;;;;;;5051208;28;20507;-73
2024/02/25 07:19:08;;;;;;;4.93;2.92;;;1.30;99.90;;;;;;5028895;28;20025;-73
2024/02/25 07:21:34;;;;;;;4.85;2.90;;;1.50;99.90;;;;;;5045587;28;20472;-73
2024/02/25 07:24:00;;;;;;;5.97;3.25;;;1.70;99.90;;;;;;5028851;28;20116;-72
2024/02/25 07:26:25;;;;;;;6.00;2.67;;;1.90;99.90;;;;;;5050074;28;20021;-73
2024/02/25 07:28:52;;;;;;;5.10;2.85;;;2.10;99.90;;;;;;5049873;28;20122;-73
2024/02/25 07:31:19;;;;;;;6.03;3.08;;;2.30;99.90;;;;;;5029909;28;20434;-73
2024/02/25 07:33:46;;;;;;;6.45;3.00;;;2.50;99.90;;;;;;5050048;28;20025;-71
2024/02/25 07:36:13;;;;;;;6.97;3.33;;;2.70;99.90;;;;;;5031215;28;20021;-73
2024/02/25 07:38:39;;;;;;;6.30;3.25;;;2.80;99.90;;;;;;5050170;28;20108;-74
2024/02/25 07:41:08;;;;;;;6.32;3.38;;;2.90;99.90;;;;;;5056917;28;20409;-73
2024/02/25 07:43:34;;;;;;;7.90;3.47;;;3.00;99.90;;;;;;5038746;28;20469;-75
2024/02/25 07:46:02;;;;;;;6.28;3.45;;;3.20;99.90;;;;;;5030659;28;20094;-74
2024/02/25 07:48:28;;;;;;;7.45;3.45;;;3.40;99.90;;;;;;5040129;28;20029;-73
2024/02/25 07:50:54;;;;;;;4.25;3.30;;;3.50;99.90;;;;;;5042914;28;20032;-72
2024/02/25 07:53:22;;;;;;;6.30;3.63;;;;;;;;;;5031803;28;20033;-73
2024/02/25 07:55:50;;;;;;;5.47;3.30;;;3.90;99.90;;;;;;5030903;28;20428;-73
2024/02/25 07:58:15;;;;;;;6.05;3.55;;;4.10;99.90;;;;;;5042782;28;20029;-74
2024/02/25 08:00:41;;;;;;;5.28;3.58;;;4.20;99.90;;;;;;5033303;28;20025;-74
2024/02/25 08:03:07;;;;;;;5.25;3.15;;;4.30;99.90;;;;;;5048158;28;20036;-73
2024/02/25 08:05:32;;;;;;;5.82;3.70;;;4.40;99.90;;;;;;5053902;28;20039;-74
2024/02/25 08:07:58;;;;;;;4.45;3.50;;;4.60;99.90;;;;;;5032487;28;20031;-72
2024/02/25 08:10:24;;;;;;;5.55;3.08;;;4.70;99.90;;;;;;5048329;28;20103;-74
2024/02/25 08:12:50;;;;;;;4.78;3.15;;;4.90;99.90;;;;;;5050713;28;20025;-75
2024/02/25 08:15:18;;;;;;;4.00;2.72;;;5.00;99.90;;;;;;5051503;28;20120;-74
2024/02/25 08:17:43;;;;;;;2.55;1.40;;;5.10;99.90;;;;;;5033014;28;20452;-73
2024/02/25 08:20:10;;;;;;;2.70;0.98;;;5.20;99.90;;;;;;5049401;28;20036;-74
2024/02/25 08:22:38;;;;;;;1.17;0.95;;;5.40;99.90;;;;;;5047139;28;20063;-73
2024/02/25 08:25:05;;;;;;;1.83;1.10;;;5.50;99.90;;;;;;5052559;28;20037;-74
2024/02/25 08:27:34;;;;;;;3.63;1.10;;;5.70;99.90;;;;;;5036522;28;20451;-72
2024/02/25 08:30:02;;;;;;;3.50;1.17;;;6.00;99.90;;;;;;5047957;28;20053;-73
2024/02/25 08:32:28;;;;;;;1.73;1.20;;;6.10;99.90;;;;;;5050902;28;20480;-73
2024/02/25 08:34:54;;;;;;;2.67;1.13;;;6.40;99.90;;;;;;5032804;28;20036;-73
2024/02/25 08:37:24;;;;;;;1.80;0.98;;;6.50;99.90;;;;;;5059383;28;20023;-72
2024/02/25 08:39:50;;;;;;;0.90;0.77;;;6.70;99.90;;;;;;5037919;28;20036;-75
2024/02/25 08:42:17;;;;;;;3.03;1.10;;;6.90;99.90;;;;;;5056474;28;20059;-75
2024/02/25 08:44:43;;;;;;;2.90;1.60;;;7.10;99.90;;;;;;5056385;28;20032;-73
2024/02/25 08:47:10;;;;;;;1.85;1.10;;;7.10;99.90;;;;;;5056763;28;20021;-76
2024/02/25 08:49:37;;;;;;;1.40;0.95;;;7.20;99.90;;;;;;5048139;28;20044;-71
2024/02/25 08:52:03;;;;;;;2.13;1.38;;;7.30;99.90;;;;;;5029000;28;20033;-74
2024/02/25 08:54:29;;;;;;;1.17;0.80;;;7.30;99.90;;;;;;5055710;28;20508;-73
2024/02/25 08:56:55;;;;;;;2.17;1.20;;;7.40;99.90;;;;;;5053254;28;20055;-71
2024/02/25 08:59:22;;;;;;;2.90;1.17;;;7.50;99.90;;;;;;5032944;28;20025;-73
2024/02/25 09:01:48;;;;;;;2.05;1.15;;;7.50;99.90;;;;;;5058955;28;20481;-71
2024/02/25 09:04:14;;;;;;;2.72;1.17;;;7.60;99.90;;;;;;5052690;28;20088;-71
2024/02/25 09:06:40;;;;;;;2.15;1.13;;;7.60;99.90;;;;;;5034649;28;20035;-73
2024/02/25 09:09:09;;;;;;;1.88;1.00;;;7.70;99.90;;;;;;5057657;28;20163;-73
2024/02/25 09:11:34;;;;;;;2.47;0.95;;;7.70;99.90;;;;;;5052016;28;20028;-74
2024/02/25 09:14:00;;;;;;;1.45;1.10;;;7.80;99.90;;;;;;5054730;28;20050;-75
2024/02/25 09:16:27;;;;;;;1.85;1.00;;;7.90;99.90;;;;;;5002338;28;20049;-73
2024/02/25 09:18:54;;;;;;;2.35;1.02;;;8.00;99.90;;;;;;5006929;28;20048;-74
2024/02/25 09:21:20;;;;;;;0.77;0.77;;;8.00;99.90;;;;;;5006717;28;20130;-73
2024/02/25 09:23:45;;;;;;;2.22;1.17;;;8.20;99.90;;;;;;5007591;28;20143;-75
2024/02/25 09:26:13;;;;;;;3.33;1.30;;;8.00;99.90;;;;;;5006198;28;20034;-74
2024/02/25 09:28:38;;;;;;;2.67;1.05;;;8.10;99.90;;;;;;5007491;28;20509;-74
2024/02/25 09:31:05;;;;;;;1.77;1.00;;;8.20;99.90;;;;;;4996518;28;20034;-74
2024/02/25 09:33:32;;;;;;;1.75;0.98;;;8.10;99.90;;;;;;4990124;28;20089;-75
2024/02/25 09:35:59;;;;;;;3.47;1.35;;;8.10;99.90;;;;;;5016381;28;20025;-74
2024/02/25 09:38:28;;;;;;;2.45;1.23;;;8.10;99.90;;;;;;5005461;28;20030;-74
2024/02/25 09:41:04;;;;;;;2.35;1.02;;;8.10;99.90;;;;;;5005077;28;20049;-74
2024/02/25 09:43:30;;;;;;;1.20;0.70;;;8.10;99.90;;;;;;5021807;28;20101;-77
2024/02/25 09:45:59;;;;;;;1.38;0.90;;;8.10;99.90;;;;;;5010516;28;20030;-76
2024/02/25 09:48:25;;;;;;;1.73;1.15;;;8.10;99.90;;;;;;5022869;28;20048;-76
2024/02/25 09:50:52;;;;;;;1.58;0.95;;;8.20;99.90;;;;;;5004827;28;20033;-77
2024/02/25 09:53:20;;;;;;;1.05;0.70;;;8.30;99.90;;;;;;5026553;28;20060;-75
2024/02/25 09:55:49;;;;;;;1.15;0.77;;;8.40;99.90;;;;;;5045759;28;20021;-76
2024/02/25 09:58:16;;;;;;;2.97;1.20;;;8.50;99.90;;;;;;5048076;28;20025;-74
2024/02/25 10:00:42;;;;;;;2.63;1.00;;;8.60;99.90;;;;;;5022539;28;20022;-73
2024/02/25 10:03:10;;;;;;;1.27;0.70;;;8.70;99.90;;;;;;5050578;28;20407;-75
2024/02/25 10:05:37;;;;;;;1.77;1.15;;;8.70;99.90;;;;;;5044932;28;20052;-74
2024/02/25 10:08:10;;;;;;;0.85;0.82;;;8.90;99.90;;;;;;5046515;28;20036;-73
2024/02/25 10:10:41;;;;;;;0.90;0.68;;;9.10;99.90;;;;;;5032848;28;20025;-75
2024/02/25 10:13:08;;;;;;;0.90;0.60;;;9.30;99.90;;;;;;5031979;28;20036;-73
2024/02/25 10:15:35;;;;;;;0.98;0.70;;;9.60;99.90;;;;;;5044906;28;20622;-75
2024/02/25 10:18:01;;;;;;;1.75;0.70;;;9.70;99.90;;;;;;5024610;28;20021;-74
2024/02/25 10:20:27;;;;;;;0.55;0.47;;;9.90;99.90;;;;;;5031748;28;20036;-74
2024/02/25 10:23:09;;;;;;;1.25;0.60;;;9.80;99.90;;;;;;5047479;28;20268;-74
2024/02/25 10:25:41;;;;;;;4.15;1.20;;;9.70;99.90;;;;;;5023966;28;20040;-74
2024/02/25 10:28:14;;;;;;;0.90;0.60;;;9.70;99.90;;;;;;5052193;28;20029;-72
2024/02/25 10:31:17;;;;;;;0.73;0.43;;;9.60;99.90;;;;;;5042553;28;20118;-71
2024/02/25 10:33:44;;;;;;;0.77;0.40;;;9.70;99.90;;;;;;5047724;28;20041;-70
2024/02/25 10:36:25;;;;;;;0.93;0.73;;;9.80;99.90;;;;;;5018090;28;20060;-73
2024/02/25 10:38:54;;;;;;;0.85;0.30;;;9.90;99.90;;;;;;5039046;28;20078;-72
2024/02/25 10:41:20;;;;;;;1.55;0.50;;;10.00;99.90;;;;;;5032971;28;20024;-72
2024/02/25 10:43:52;;;;;;;0.30;0.30;;;10.00;99.90;;;;;;5027565;28;20070;-71
2024/02/25 10:46:49;;;;;;;0.25;0.25;;;10.10;99.90;;;;;;5036993;28;20496;-72
2024/02/25 10:49:19;;;;;;;1.42;0.50;;;10.20;99.90;;;;;;5037757;28;20454;-72
2024/02/25 10:51:46;;;;;;;1.40;0.40;;;10.20;99.90;;;;;;5035141;28;20064;-71
2024/02/25 10:54:15;;;;;;;0.20;0.20;;;10.20;99.90;;;;;;5013536;28;20497;-73
2024/02/25 10:56:42;;;;;;;2.20;0.50;;;10.10;99.90;;;;;;5024007;28;20041;-72
2024/02/25 10:59:10;;;;;;;1.55;0.65;;;10.10;99.90;;;;;;5051766;28;20138;-73
2024/02/25 11:01:39;;;;;;;1.40;0.30;;;10.20;99.90;;;;;;5046063;28;20108;-72
2024/02/25 11:04:05;;;;;;;1.75;0.30;;;10.30;99.90;;;;;;5046214;28;20032;-72
2024/02/25 11:06:42;;;;;;;0.47;0.40;;;10.40;99.90;;;;;;5044455;28;20116;-72
2024/02/25 11:09:15;;;;;;;1.30;0.60;;;10.40;99.90;;;;;;5019765;28;20037;-71
2024/02/25 11:11:44;;;;;;;0.73;0.28;;;10.50;99.90;;;;;;5018261;28;20110;-72
2024/02/25 11:14:18;;;;;;;1.00;0.52;;;10.50;99.90;;;;;;5057715;28;20028;-72
2024/02/25 11:16:47;;;;;;;0.40;0.38;;;10.70;99.90;;;;;;5028446;28;20046;-73
2024/02/25 11:19:16;;;;;;;0.20;0.20;;;10.70;99.90;;;;;;5047901;28;20491;-73
2024/02/25 11:21:52;;;;;;;0.95;0.60;;;10.80;99.70;;;;;;5028928;28;20409;-71
2024/02/25 11:24:47;;;;;;;0.75;0.50;;;11.00;98.40;;;;;;5016229;28;20040;-71
2024/02/25 11:27:13;;;;;;;0.75;0.70;;;11.00;96.80;;;;;;5043974;28;20315;-72
2024/02/25 11:29:40;;;;;;;0.43;0.40;;;10.90;95.20;;;;;;5033331;28;20045;-72
2024/02/25 11:32:06;;;;;;;2.45;0.60;;;10.90;95.10;;;;;;5034196;28;20040;-73
2024/02/25 11:34:34;;;;;;;2.85;0.63;;;11.00;95.30;;;;;;5010712;28;20433;-72
2024/02/25 11:37:04;;;;;;;1.55;0.60;;;11.10;95.10;;;;;;5030805;28;20377;-74
2024/02/25 11:39:31;;;;;;;1.05;0.60;;;11.10;95.10;;;;;;5013649;28;20527;-73
2024/02/25 11:42:05;;;;;;;0.70;0.60;;;11.10;94.90;;;;;;5031168;28;20441;-73
2024/02/25 11:44:34;;;;;;;1.25;0.68;;;11.20;94.70;;;;;;5013728;28;20030;-73
2024/02/25 11:47:07;;;;;;;0.50;0.50;;;11.30;94.60;;;;;;5013486;28;20044;-75
2024/02/25 11:49:34;;;;;;;1.23;0.60;;;11.30;94.40;;;;;;5013158;28;20034;-73
2024/02/25 11:52:00;;;;;;;1.27;0.55;;;11.40;94.70;;;;;;5028135;28;20032;-73
2024/02/25 11:54:28;;;;;;;1.10;0.50;;;11.50;94.50;;;;;;5030947;28;20480;-72
2024/02/25 11:56:54;;;;;;;1.50;0.60;;;11.70;93.80;;;;;;5030621;28;20021;-72
2024/02/25 11:59:21;;;;;;;0.45;0.40;;;11.90;93.60;;;;;;5031073;28;20104;-75
2024/02/25 12:01:49;;;;;;;2.03;0.70;;;12.00;93.30;;;;;;5031276;28;20030;-76
2024/02/25 12:04:15;;;;;;;0.90;0.80;;;12.20;93.00;;;;;;5009968;28;20033;-75
2024/02/25 12:06:42;;;;;;;0.57;0.45;;;12.20;92.50;;;;;;5013430;28;20022;-76
2024/02/25 12:09:07;;;;;;;1.50;0.73;;;12.30;92.20;;;;;;5028676;28;20033;-77
2024/02/25 12:11:35;;;;;;;0.75;0.70;;;12.20;91.90;;;;;;5031261;28;20037;-74
2024/02/25 12:14:16;;;;;;;0.80;0.55;;;12.20;91.60;;;;;;5029797;28;20029;-71
2024/02/25 12:16:42;;;;;;;1.02;0.57;;;12.20;91.40;;;;;;5029910;28;20033;-71
2024/02/25 12:19:10;;;;;;;0.50;0.30;;;12.10;90.90;;;;;;5029863;28;20083;-72
2024/02/25 12:21:36;;;;;;;0.70;0.70;;;12.20;90.80;;;;;;5030636;28;20404;-73
2024/02/25 12:24:03;;;;;;;0.52;0.40;;;12.20;90.30;;;;;;5030114;28;20064;-72
2024/02/25 12:26:46;;;;;;;1.17;0.85;;;12.50;89.80;;;;;;5006502;28;20025;-72
2024/02/25 12:29:12;;;;;;;1.05;0.55;;;12.90;88.70;;;;;;5028873;28;20056;-73
2024/02/25 12:31:38;;;;;;;0.80;0.52;;;13.10;87.10;;;;;;5031117;28;20025;-75
2024/02/25 12:34:04;;;;;;;2.05;0.90;;;13.40;90.70;;;;;;5028777;28;20025;-74
2024/02/25 12:36:32;;;;;;;0.65;0.55;;;13.30;85.30;;;;;;5030498;28;20036;-76
2024/02/25 12:38:58;;;;;;;1.70;0.55;;;13.40;85.00;;;;;;4992884;28;20026;-75
2024/02/25 12:41:23;;;;;;;1.73;0.40;;;13.50;83.70;;;;;;5030930;28;20037;-79
2024/02/25 12:43:52;;;;;;;1.42;1.08;;;13.80;83.40;;;;;;5029559;28;20099;-78
2024/02/25 12:46:20;;;;;;;0.57;0.32;;;14.00;81.90;;;;;;5030153;28;20032;-83
2024/02/25 12:48:55;;;;;;;1.55;0.77;;;14.10;80.80;;;;;;5030347;28;20045;-76
2024/02/25 12:51:22;;;;;;;0.65;0.63;;;14.20;80.30;;;;;;5012219;28;20030;-76
2024/02/25 12:53:48;;;;;;;0.52;0.35;;;14.60;78.60;;;;;;5030578;28;20025;-75
2024/02/25 12:56:14;;;;;;;0.60;0.40;;;15.10;77.20;;;;;;5029089;28;20119;-73
2024/02/25 12:58:44;;;;;;;0.40;0.40;;;15.30;76.50;;;;;;5030694;28;20021;-74
2024/02/25 13:01:10;;;;;;;;;;;15.40;75.50;;;;;;5028176;28;20040;-73
2024/02/25 13:03:37;;;;;;;0.43;0.35;;;15.70;74.60;;;;;;5011136;28;19909;-74
2024/02/25 13:06:05;;;;;;;0.65;0.40;;;16.20;82.00;;;;;;5027353;28;20112;-72
2024/02/25 13:08:33;;;;;;;0.43;0.43;;;16.20;72.70;;;;;;5031729;28;20030;-72
2024/02/25 13:10:58;;;;;;;2.08;0.60;;;16.50;72.70;;;;;;5033884;28;20488;-73
2024/02/25 13:13:25;;;;;;;0.45;0.45;;;17.10;71.70;;;;;;5029948;28;20030;-72